sensor_id;sensor_type;location;lat;lon;timestamp;temperature;humidity
68051;DHT22;54839;51.364;7.246;2022-12-26T00:00:15;10.40;99.90
68051;DHT22;54839;51.364;7.246;2022-12-26T00:02:41;10.40;99.90
68051;DHT22;54839;51.364;7.246;2022-12-26T00:05:07;10.40;99.90
68051;DHT22;54839;51.364;7.246;2022-12-26T00:07:33;10.40;99.90
68051;DHT22;54839;51.364;7.246;2022-12-26T00:09:58;10.40;99.90
68051;DHT22;54839;51.364;7.246;2022-12-26T00:12:24;10.30;99.90
68051;DHT22;54839;51.364;7.246;2022-12-26T00:14:49;10.30;99.90
68051;DHT22;54839;51.364;7.246;2022-12-26T00:17:15;10.40;99.90
68051;DHT22;54839;51.364;7.246;2022-12-26T00:19:41;10.40;99.90
68051;DHT22;54839;51.364;7.246;2022-12-26T00:22:07;10.40;99.90
68051;DHT22;54839;51.364;7.246;2022-12-26T00:24:33;10.40;99.90
68051;DHT22;54839;51.364;7.246;2022-12-26T00:26:58;10.60;99.90
68051;DHT22;54839;51.364;7.246;2022-12-26T00:29:24;10.50;99.90
68051;DHT22;54839;51.364;7.246;2022-12-26T00:31:50;10.40;99.90
68051;DHT22;54839;51.364;7.246;2022-12-26T00:34:15;10.50;99.90
68051;DHT22;54839;51.364;7.246;2022-12-26T00:36:41;10.60;99.90
68051;DHT22;54839;51.364;7.246;2022-12-26T00:39:07;10.70;99.90
68051;DHT22;54839;51.364;7.246;2022-12-26T00:41:32;10.70;99.90
68051;DHT22;54839;51.364;7.246;2022-12-26T00:43:58;10.70;99.90
68051;DHT22;54839;51.364;7.246;2022-12-26T00:46:25;10.70;99.90
68051;DHT22;54839;51.364;7.246;2022-12-26T00:48:51;10.80;99.90
68051;DHT22;54839;51.364;7.246;2022-12-26T00:51:17;10.80;99.90
68051;DHT22;54839;51.364;7.246;2022-12-26T00:53:43;10.70;99.90
68051;DHT22;54839;51.364;7.246;2022-12-26T00:56:08;10.90;99.90
68051;DHT22;54839;51.364;7.246;2022-12-26T00:58:34;10.70;99.90
68051;DHT22;54839;51.364;7.246;2022-12-26T01:01:18;10.70;99.90
68051;DHT22;54839;51.364;7.246;2022-12-26T01:03:45;10.80;99.90
68051;DHT22;54839;51.364;7.246;2022-12-26T01:06:12;10.90;99.90
68051;DHT22;54839;51.364;7.246;2022-12-26T01:08:38;10.90;99.90
68051;DHT22;54839;51.364;7.246;2022-12-26T01:11:06;10.80;99.90
68051;DHT22;54839;51.364;7.246;2022-12-26T01:13:33;11.00;99.90
68051;DHT22;54839;51.364;7.246;2022-12-26T01:15:59;10.90;99.90
68051;DHT22;54839;51.364;7.246;2022-12-26T01:18:25;11.00;99.90
68051;DHT22;54839;51.364;7.246;2022-12-26T01:20:50;11.00;99.90
68051;DHT22;54839;51.364;7.246;2022-12-26T01:23:16;11.00;99.90
68051;DHT22;54839;51.364;7.246;2022-12-26T01:25:42;10.90;99.90
68051;DHT22;54839;51.364;7.246;2022-12-26T01:28:08;11.00;99.90
68051;DHT22;54839;51.364;7.246;2022-12-26T01:30:33;10.80;99.90
68051;DHT22;54839;51.364;7.246;2022-12-26T01:32:59;10.80;99.90
68051;DHT22;54839;51.364;7.246;2022-12-26T01:35:25;10.70;99.90
68051;DHT22;54839;51.364;7.246;2022-12-26T01:37:50;10.80;99.90
68051;DHT22;54839;51.364;7.246;2022-12-26T01:40:16;10.80;99.90
68051;DHT22;54839;51.364;7.246;2022-12-26T01:42:42;10.80;99.90
68051;DHT22;54839;51.364;7.246;2022-12-26T01:45:21;10.80;99.90
68051;DHT22;54839;51.364;7.246;2022-12-26T01:53:00;10.60;99.90
68051;DHT22;54839;51.364;7.246;2022-12-26T01:55:28;10.40;99.90
68051;DHT22;54839;51.364;7.246;2022-12-26T01:58:03;10.40;99.90
68051;DHT22;54839;51.364;7.246;2022-12-26T02:00:32;10.50;99.90
68051;DHT22;54839;51.364;7.246;2022-12-26T02:02:59;10.40;99.90
68051;DHT22;54839;51.364;7.246;2022-12-26T02:05:44;10.50;99.90
68051;DHT22;54839;51.364;7.246;2022-12-26T02:08:20;10.40;99.90
68051;DHT22;54839;51.364;7.246;2022-12-26T02:11:21;10.40;99.90
68051;DHT22;54839;51.364;7.246;2022-12-26T02:13:40;10.50;99.90
68051;DHT22;54839;51.364;7.246;2022-12-26T02:16:09;10.40;99.90
68051;DHT22;54839;51.364;7.246;2022-12-26T02:18:35;10.30;99.90
68051;DHT22;54839;51.364;7.246;2022-12-26T02:24:32;10.40;99.90
68051;DHT22;54839;51.364;7.246;2022-12-26T02:27:36;10.40;99.90
68051;DHT22;54839;51.364;7.246;2022-12-26T02:37:57;10.30;99.90
68051;DHT22;54839;51.364;7.246;2022-12-26T02:43:24;10.30;99.90
68051;DHT22;54839;51.364;7.246;2022-12-26T02:46:11;10.40;99.90
68051;DHT22;54839;51.364;7.246;2022-12-26T02:49:17;10.40;99.90
68051;DHT22;54839;51.364;7.246;2022-12-26T02:51:59;10.40;99.90
68051;DHT22;54839;51.364;7.246;2022-12-26T02:55:02;10.40;99.90
68051;DHT22;54839;51.364;7.246;2022-12-26T02:58:03;10.40;99.90
68051;DHT22;54839;51.364;7.246;2022-12-26T03:00:54;10.40;99.90
68051;DHT22;54839;51.364;7.246;2022-12-26T03:03:45;10.40;99.90
68051;DHT22;54839;51.364;7.246;2022-12-26T03:06:31;10.30;99.90
68051;DHT22;54839;51.364;7.246;2022-12-26T03:09:29;10.40;99.90
68051;DHT22;54839;51.364;7.246;2022-12-26T03:15:05;10.30;99.90
68051;DHT22;54839;51.364;7.246;2022-12-26T03:20:08;10.20;99.90
68051;DHT22;54839;51.364;7.246;2022-12-26T03:25:35;10.20;99.90
68051;DHT22;54839;51.364;7.246;2022-12-26T03:28:21;10.20;99.90
68051;DHT22;54839;51.364;7.246;2022-12-26T03:30:46;10.20;99.90
68051;DHT22;54839;51.364;7.246;2022-12-26T03:33:30;10.30;99.90
68051;DHT22;54839;51.364;7.246;2022-12-26T03:42:03;10.20;99.90
68051;DHT22;54839;51.364;7.246;2022-12-26T03:44:56;10.20;99.90
68051;DHT22;54839;51.364;7.246;2022-12-26T03:50:39;10.10;99.90
68051;DHT22;54839;51.364;7.246;2022-12-26T03:56:36;10.10;99.90
68051;DHT22;54839;51.364;7.246;2022-12-26T03:59:51;10.10;99.90
68051;DHT22;54839;51.364;7.246;2022-12-26T04:02:37;10.10;99.90
68051;DHT22;54839;51.364;7.246;2022-12-26T04:05:23;10.10;99.90
68051;DHT22;54839;51.364;7.246;2022-12-26T04:08:15;10.10;99.90
68051;DHT22;54839;51.364;7.246;2022-12-26T04:11:01;10.00;99.90
68051;DHT22;54839;51.364;7.246;2022-12-26T04:16:55;9.90;99.90
68051;DHT22;54839;51.364;7.246;2022-12-26T04:20:02;10.00;99.90
68051;DHT22;54839;51.364;7.246;2022-12-26T04:25:57;9.80;99.90
68051;DHT22;54839;51.364;7.246;2022-12-26T04:28:42;9.80;99.90
68051;DHT22;54839;51.364;7.246;2022-12-26T04:31:31;9.70;99.90
68051;DHT22;54839;51.364;7.246;2022-12-26T04:37:28;9.60;99.90
68051;DHT22;54839;51.364;7.246;2022-12-26T04:40:18;9.70;99.90
68051;DHT22;54839;51.364;7.246;2022-12-26T04:43:04;9.60;99.90
68051;DHT22;54839;51.364;7.246;2022-12-26T04:45:50;9.60;99.90
68051;DHT22;54839;51.364;7.246;2022-12-26T04:48:16;9.60;99.90
68051;DHT22;54839;51.364;7.246;2022-12-26T04:51:00;9.50;99.90
68051;DHT22;54839;51.364;7.246;2022-12-26T04:53:26;9.60;99.90
68051;DHT22;54839;51.364;7.246;2022-12-26T04:55:51;9.60;99.90
68051;DHT22;54839;51.364;7.246;2022-12-26T04:58:17;9.70;99.90
68051;DHT22;54839;51.364;7.246;2022-12-26T05:00:43;9.70;99.90
68051;DHT22;54839;51.364;7.246;2022-12-26T05:03:12;9.80;99.90
68051;DHT22;54839;51.364;7.246;2022-12-26T05:05:57;9.80;99.90
68051;DHT22;54839;51.364;7.246;2022-12-26T05:08:43;9.70;99.90
68051;DHT22;54839;51.364;7.246;2022-12-26T05:11:30;9.70;99.90
68051;DHT22;54839;51.364;7.246;2022-12-26T05:13:57;9.70;99.90
68051;DHT22;54839;51.364;7.246;2022-12-26T05:16:24;9.80;99.90
68051;DHT22;54839;51.364;7.246;2022-12-26T05:19:13;9.70;99.90
68051;DHT22;54839;51.364;7.246;2022-12-26T05:21:58;9.80;99.90
68051;DHT22;54839;51.364;7.246;2022-12-26T05:24:43;9.80;99.90
68051;DHT22;54839;51.364;7.246;2022-12-26T05:27:36;9.80;99.90
68051;DHT22;54839;51.364;7.246;2022-12-26T05:30:21;9.80;99.90
68051;DHT22;54839;51.364;7.246;2022-12-26T05:32:47;9.70;99.90
68051;DHT22;54839;51.364;7.246;2022-12-26T05:35:32;9.80;99.90
68051;DHT22;54839;51.364;7.246;2022-12-26T05:37:58;9.70;99.90
68051;DHT22;54839;51.364;7.246;2022-12-26T05:40:24;9.70;99.90
68051;DHT22;54839;51.364;7.246;2022-12-26T05:42:49;9.70;99.90
68051;DHT22;54839;51.364;7.246;2022-12-26T05:45:15;9.70;99.90
68051;DHT22;54839;51.364;7.246;2022-12-26T05:47:41;9.70;99.90
68051;DHT22;54839;51.364;7.246;2022-12-26T05:50:07;9.70;99.90
68051;DHT22;54839;51.364;7.246;2022-12-26T05:52:32;9.70;99.90
68051;DHT22;54839;51.364;7.246;2022-12-26T05:54:58;9.80;99.90
68051;DHT22;54839;51.364;7.246;2022-12-26T05:57:24;9.80;99.90
68051;DHT22;54839;51.364;7.246;2022-12-26T05:59:49;9.80;99.90
68051;DHT22;54839;51.364;7.246;2022-12-26T06:02:15;9.80;99.90
68051;DHT22;54839;51.364;7.246;2022-12-26T06:04:40;9.80;99.90
68051;DHT22;54839;51.364;7.246;2022-12-26T06:07:06;9.70;99.90
68051;DHT22;54839;51.364;7.246;2022-12-26T06:09:32;9.70;99.90
68051;DHT22;54839;51.364;7.246;2022-12-26T06:11:57;9.80;99.90
68051;DHT22;54839;51.364;7.246;2022-12-26T06:14:23;9.80;99.90
68051;DHT22;54839;51.364;7.246;2022-12-26T06:16:49;9.70;99.90
68051;DHT22;54839;51.364;7.246;2022-12-26T06:19:15;9.70;99.90
68051;DHT22;54839;51.364;7.246;2022-12-26T06:21:41;9.70;99.90
68051;DHT22;54839;51.364;7.246;2022-12-26T06:24:07;9.80;99.90
68051;DHT22;54839;51.364;7.246;2022-12-26T06:26:32;9.80;99.90
68051;DHT22;54839;51.364;7.246;2022-12-26T06:28:58;9.80;99.90
68051;DHT22;54839;51.364;7.246;2022-12-26T06:31:24;9.70;99.90
68051;DHT22;54839;51.364;7.246;2022-12-26T06:33:53;9.70;99.90
68051;DHT22;54839;51.364;7.246;2022-12-26T06:36:22;9.60;99.90
68051;DHT22;54839;51.364;7.246;2022-12-26T06:38:48;9.70;99.90
68051;DHT22;54839;51.364;7.246;2022-12-26T06:41:16;9.60;99.90
68051;DHT22;54839;51.364;7.246;2022-12-26T06:43:42;9.60;99.90
68051;DHT22;54839;51.364;7.246;2022-12-26T06:46:11;9.60;99.90
68051;DHT22;54839;51.364;7.246;2022-12-26T06:48:37;9.70;99.90
68051;DHT22;54839;51.364;7.246;2022-12-26T06:51:12;9.70;99.90
68051;DHT22;54839;51.364;7.246;2022-12-26T06:53:38;9.70;99.90
68051;DHT22;54839;51.364;7.246;2022-12-26T06:58:41;9.70;99.90
68051;DHT22;54839;51.364;7.246;2022-12-26T07:01:15;9.60;99.90
68051;DHT22;54839;51.364;7.246;2022-12-26T07:03:42;9.70;99.90
68051;DHT22;54839;51.364;7.246;2022-12-26T07:06:30;9.70;99.90
68051;DHT22;54839;51.364;7.246;2022-12-26T07:08:59;9.70;99.90
68051;DHT22;54839;51.364;7.246;2022-12-26T07:11:27;9.70;99.90
68051;DHT22;54839;51.364;7.246;2022-12-26T07:13:53;9.80;99.90
68051;DHT22;54839;51.364;7.246;2022-12-26T07:16:19;9.70;99.90
68051;DHT22;54839;51.364;7.246;2022-12-26T07:18:45;9.80;99.90
68051;DHT22;54839;51.364;7.246;2022-12-26T07:21:12;9.90;99.90
68051;DHT22;54839;51.364;7.246;2022-12-26T07:23:39;9.90;99.90
68051;DHT22;54839;51.364;7.246;2022-12-26T07:26:05;9.80;99.90
68051;DHT22;54839;51.364;7.246;2022-12-26T07:28:31;9.90;99.90
68051;DHT22;54839;51.364;7.246;2022-12-26T07:30:57;9.80;99.90
68051;DHT22;54839;51.364;7.246;2022-12-26T07:33:27;9.90;99.90
68051;DHT22;54839;51.364;7.246;2022-12-26T07:35:53;9.90;99.90
68051;DHT22;54839;51.364;7.246;2022-12-26T07:38:19;9.80;99.90
68051;DHT22;54839;51.364;7.246;2022-12-26T07:40:45;9.80;99.90
68051;DHT22;54839;51.364;7.246;2022-12-26T07:43:10;9.90;99.90
68051;DHT22;54839;51.364;7.246;2022-12-26T07:45:36;10.00;99.90
68051;DHT22;54839;51.364;7.246;2022-12-26T07:48:02;9.90;99.90
68051;DHT22;54839;51.364;7.246;2022-12-26T07:50:27;10.00;99.90
68051;DHT22;54839;51.364;7.246;2022-12-26T07:52:53;10.00;99.90
68051;DHT22;54839;51.364;7.246;2022-12-26T07:55:21;9.90;99.90
68051;DHT22;54839;51.364;7.246;2022-12-26T07:57:50;10.00;99.90
68051;DHT22;54839;51.364;7.246;2022-12-26T08:00:17;10.00;99.90
68051;DHT22;54839;51.364;7.246;2022-12-26T08:02:45;9.90;99.90
68051;DHT22;54839;51.364;7.246;2022-12-26T08:05:11;9.90;99.90
68051;DHT22;54839;51.364;7.246;2022-12-26T08:07:37;9.90;99.90
68051;DHT22;54839;51.364;7.246;2022-12-26T08:10:03;9.90;99.90
68051;DHT22;54839;51.364;7.246;2022-12-26T08:12:31;9.80;99.90
68051;DHT22;54839;51.364;7.246;2022-12-26T08:14:57;9.80;99.90
68051;DHT22;54839;51.364;7.246;2022-12-26T08:17:22;9.90;99.90
68051;DHT22;54839;51.364;7.246;2022-12-26T08:19:48;9.80;99.90
68051;DHT22;54839;51.364;7.246;2022-12-26T08:22:14;9.90;99.90
68051;DHT22;54839;51.364;7.246;2022-12-26T08:24:39;9.90;99.90
68051;DHT22;54839;51.364;7.246;2022-12-26T08:27:05;9.90;99.90
68051;DHT22;54839;51.364;7.246;2022-12-26T08:29:31;10.00;99.90
68051;DHT22;54839;51.364;7.246;2022-12-26T08:31:57;9.90;99.90
68051;DHT22;54839;51.364;7.246;2022-12-26T08:34:22;9.90;99.90
68051;DHT22;54839;51.364;7.246;2022-12-26T08:36:51;9.90;99.90
68051;DHT22;54839;51.364;7.246;2022-12-26T08:39:17;9.90;99.90
68051;DHT22;54839;51.364;7.246;2022-12-26T08:41:43;10.00;99.90
68051;DHT22;54839;51.364;7.246;2022-12-26T08:44:09;10.00;99.90
68051;DHT22;54839;51.364;7.246;2022-12-26T08:46:36;10.00;99.90
68051;DHT22;54839;51.364;7.246;2022-12-26T08:49:01;9.90;99.90
68051;DHT22;54839;51.364;7.246;2022-12-26T08:51:27;9.90;99.90
68051;DHT22;54839;51.364;7.246;2022-12-26T08:53:54;9.90;99.90
68051;DHT22;54839;51.364;7.246;2022-12-26T08:56:22;10.00;99.90
68051;DHT22;54839;51.364;7.246;2022-12-26T08:58:48;10.00;99.90
68051;DHT22;54839;51.364;7.246;2022-12-26T09:01:15;9.90;99.90
68051;DHT22;54839;51.364;7.246;2022-12-26T09:03:41;10.00;99.90
68051;DHT22;54839;51.364;7.246;2022-12-26T09:06:09;9.80;99.90
68051;DHT22;54839;51.364;7.246;2022-12-26T09:08:36;9.90;99.90
68051;DHT22;54839;51.364;7.246;2022-12-26T09:11:10;9.90;99.90
68051;DHT22;54839;51.364;7.246;2022-12-26T09:13:36;9.90;99.90
68051;DHT22;54839;51.364;7.246;2022-12-26T09:16:05;9.90;99.90
68051;DHT22;54839;51.364;7.246;2022-12-26T09:18:31;9.80;99.90
68051;DHT22;54839;51.364;7.246;2022-12-26T09:21:02;9.80;99.90
68051;DHT22;54839;51.364;7.246;2022-12-26T09:23:28;9.70;99.90
68051;DHT22;54839;51.364;7.246;2022-12-26T09:25:54;9.70;99.90
68051;DHT22;54839;51.364;7.246;2022-12-26T09:28:20;9.80;99.90
68051;DHT22;54839;51.364;7.246;2022-12-26T09:30:46;9.90;99.90
68051;DHT22;54839;51.364;7.246;2022-12-26T09:33:11;9.80;99.90
68051;DHT22;54839;51.364;7.246;2022-12-26T09:35:40;9.80;99.90
68051;DHT22;54839;51.364;7.246;2022-12-26T09:38:06;9.90;99.90
68051;DHT22;54839;51.364;7.246;2022-12-26T09:49:18;9.80;99.90
68051;DHT22;54839;51.364;7.246;2022-12-26T09:51:48;9.80;99.90
68051;DHT22;54839;51.364;7.246;2022-12-26T09:54:25;9.80;99.90
68051;DHT22;54839;51.364;7.246;2022-12-26T09:56:52;9.80;99.90
68051;DHT22;54839;51.364;7.246;2022-12-26T09:59:20;9.90;99.90
68051;DHT22;54839;51.364;7.246;2022-12-26T10:01:46;10.00;99.90
68051;DHT22;54839;51.364;7.246;2022-12-26T10:04:26;10.10;99.90
68051;DHT22;54839;51.364;7.246;2022-12-26T10:23:31;10.20;99.90
68051;DHT22;54839;51.364;7.246;2022-12-26T10:32:04;10.10;99.90
68051;DHT22;54839;51.364;7.246;2022-12-26T10:34:35;10.00;99.90
68051;DHT22;54839;51.364;7.246;2022-12-26T10:37:24;10.00;99.90
68051;DHT22;54839;51.364;7.246;2022-12-26T10:42:41;10.20;99.90
68051;DHT22;54839;51.364;7.246;2022-12-26T10:47:46;10.20;99.90
68051;DHT22;54839;51.364;7.246;2022-12-26T10:50:35;10.30;99.90
68051;DHT22;54839;51.364;7.246;2022-12-26T10:53:04;10.10;99.90
68051;DHT22;54839;51.364;7.246;2022-12-26T10:55:32;10.20;99.90
68051;DHT22;54839;51.364;7.246;2022-12-26T10:58:22;10.30;99.90
68051;DHT22;54839;51.364;7.246;2022-12-26T11:00:50;10.20;99.90
68051;DHT22;54839;51.364;7.246;2022-12-26T11:03:17;10.30;99.90
68051;DHT22;54839;51.364;7.246;2022-12-26T11:05:52;10.20;99.90
68051;DHT22;54839;51.364;7.246;2022-12-26T11:09:04;10.30;99.90
68051;DHT22;54839;51.364;7.246;2022-12-26T11:13:55;10.40;99.90
68051;DHT22;54839;51.364;7.246;2022-12-26T11:16:30;10.30;99.90
68051;DHT22;54839;51.364;7.246;2022-12-26T11:18:56;10.30;99.90
68051;DHT22;54839;51.364;7.246;2022-12-26T11:21:24;10.40;99.90
68051;DHT22;54839;51.364;7.246;2022-12-26T11:23:52;10.40;99.90
68051;DHT22;54839;51.364;7.246;2022-12-26T11:26:25;10.30;99.90
68051;DHT22;54839;51.364;7.246;2022-12-26T11:29:10;10.40;99.90
68051;DHT22;54839;51.364;7.246;2022-12-26T11:31:48;10.30;99.90
68051;DHT22;54839;51.364;7.246;2022-12-26T11:34:19;10.30;99.90
68051;DHT22;54839;51.364;7.246;2022-12-26T11:36:48;10.40;99.90
68051;DHT22;54839;51.364;7.246;2022-12-26T11:39:23;10.40;99.90
68051;DHT22;54839;51.364;7.246;2022-12-26T11:41:50;10.50;99.90
68051;DHT22;54839;51.364;7.246;2022-12-26T11:46:59;10.50;99.90
68051;DHT22;54839;51.364;7.246;2022-12-26T11:49:28;10.40;99.90
68051;DHT22;54839;51.364;7.246;2022-12-26T11:51:56;10.50;99.90
68051;DHT22;54839;51.364;7.246;2022-12-26T11:54:45;10.40;99.90
68051;DHT22;54839;51.364;7.246;2022-12-26T11:57:20;10.40;99.90
68051;DHT22;54839;51.364;7.246;2022-12-26T11:59:47;10.30;99.90
68051;DHT22;54839;51.364;7.246;2022-12-26T12:02:26;10.30;99.90
68051;DHT22;54839;51.364;7.246;2022-12-26T12:04:56;10.40;99.90
68051;DHT22;54839;51.364;7.246;2022-12-26T12:12:38;10.30;99.90
68051;DHT22;54839;51.364;7.246;2022-12-26T12:15:23;10.20;99.90
68051;DHT22;54839;51.364;7.246;2022-12-26T12:23:53;10.10;99.90
68051;DHT22;54839;51.364;7.246;2022-12-26T12:26:35;10.00;99.90
68051;DHT22;54839;51.364;7.246;2022-12-26T12:29:28;9.90;99.90
68051;DHT22;54839;51.364;7.246;2022-12-26T12:32:08;10.00;99.90
68051;DHT22;54839;51.364;7.246;2022-12-26T12:40:30;10.20;99.90
68051;DHT22;54839;51.364;7.246;2022-12-26T12:45:32;10.40;99.90
68051;DHT22;54839;51.364;7.246;2022-12-26T12:54:02;10.10;99.90
68051;DHT22;54839;51.364;7.246;2022-12-26T13:02:35;9.90;99.90
68051;DHT22;54839;51.364;7.246;2022-12-26T13:07:42;9.60;99.90
68051;DHT22;54839;51.364;7.246;2022-12-26T13:10:21;9.60;99.90
68051;DHT22;54839;51.364;7.246;2022-12-26T13:12:49;9.50;99.90
68051;DHT22;54839;51.364;7.246;2022-12-26T13:15:27;9.40;99.90
68051;DHT22;54839;51.364;7.246;2022-12-26T13:18:04;9.40;99.90
68051;DHT22;54839;51.364;7.246;2022-12-26T13:23:08;9.10;99.90
68051;DHT22;54839;51.364;7.246;2022-12-26T13:26:17;9.00;99.90
68051;DHT22;54839;51.364;7.246;2022-12-26T13:28:53;8.70;99.90
68051;DHT22;54839;51.364;7.246;2022-12-26T13:31:19;8.60;99.90
68051;DHT22;54839;51.364;7.246;2022-12-26T13:33:45;8.50;99.90
68051;DHT22;54839;51.364;7.246;2022-12-26T13:36:35;8.40;99.90
68051;DHT22;54839;51.364;7.246;2022-12-26T13:41:52;8.20;99.90
68051;DHT22;54839;51.364;7.246;2022-12-26T13:44:38;8.00;99.90
68051;DHT22;54839;51.364;7.246;2022-12-26T13:47:04;7.90;99.90
68051;DHT22;54839;51.364;7.246;2022-12-26T13:49:38;7.80;99.90
68051;DHT22;54839;51.364;7.246;2022-12-26T14:05:56;7.70;99.90
68051;DHT22;54839;51.364;7.246;2022-12-26T14:22:35;8.30;99.90
68051;DHT22;54839;51.364;7.246;2022-12-26T14:25:13;8.30;99.90
68051;DHT22;54839;51.364;7.246;2022-12-26T14:31:17;8.20;99.90
68051;DHT22;54839;51.364;7.246;2022-12-26T14:36:52;8.20;99.90
68051;DHT22;54839;51.364;7.246;2022-12-26T14:42:28;8.20;99.90
68051;DHT22;54839;51.364;7.246;2022-12-26T14:47:59;8.30;99.90
68051;DHT22;54839;51.364;7.246;2022-12-26T14:58:41;8.00;99.90
68051;DHT22;54839;51.364;7.246;2022-12-26T15:06:35;7.70;99.90
68051;DHT22;54839;51.364;7.246;2022-12-26T15:17:26;7.30;99.90
68051;DHT22;54839;51.364;7.246;2022-12-26T15:25:32;7.40;99.90
68051;DHT22;54839;51.364;7.246;2022-12-26T15:33:39;7.40;99.90
68051;DHT22;54839;51.364;7.246;2022-12-26T15:41:46;7.40;99.90
68051;DHT22;54839;51.364;7.246;2022-12-26T15:52:18;7.30;99.90
68051;DHT22;54839;51.364;7.246;2022-12-26T15:55:08;7.10;99.90
68051;DHT22;54839;51.364;7.246;2022-12-26T16:00:52;6.90;99.90
68051;DHT22;54839;51.364;7.246;2022-12-26T16:06:04;7.00;99.90
68051;DHT22;54839;51.364;7.246;2022-12-26T16:08:57;7.00;99.90
68051;DHT22;54839;51.364;7.246;2022-12-26T16:11:30;7.00;99.90
68051;DHT22;54839;51.364;7.246;2022-12-26T16:14:13;7.00;99.90
68051;DHT22;54839;51.364;7.246;2022-12-26T16:16:48;7.00;99.90
68051;DHT22;54839;51.364;7.246;2022-12-26T16:19:26;6.90;99.90
68051;DHT22;54839;51.364;7.246;2022-12-26T16:22:02;7.00;99.90
68051;DHT22;54839;51.364;7.246;2022-12-26T16:24:48;6.80;99.90
68051;DHT22;54839;51.364;7.246;2022-12-26T16:27:19;6.60;99.90
68051;DHT22;54839;51.364;7.246;2022-12-26T16:30:01;6.70;99.90
68051;DHT22;54839;51.364;7.246;2022-12-26T16:32:34;6.60;99.90
68051;DHT22;54839;51.364;7.246;2022-12-26T16:35:00;6.50;99.90
68051;DHT22;54839;51.364;7.246;2022-12-26T16:37:27;6.40;99.90
68051;DHT22;54839;51.364;7.246;2022-12-26T16:40:16;6.40;99.90
68051;DHT22;54839;51.364;7.246;2022-12-26T16:42:52;6.20;99.90
68051;DHT22;54839;51.364;7.246;2022-12-26T16:45:19;6.20;99.90
68051;DHT22;54839;51.364;7.246;2022-12-26T16:47:45;6.10;99.90
68051;DHT22;54839;51.364;7.246;2022-12-26T16:50:30;6.10;99.90
68051;DHT22;54839;51.364;7.246;2022-12-26T16:53:07;6.00;99.90
68051;DHT22;54839;51.364;7.246;2022-12-26T16:58:10;5.90;99.90
68051;DHT22;54839;51.364;7.246;2022-12-26T17:00:37;5.80;99.90
68051;DHT22;54839;51.364;7.246;2022-12-26T17:03:08;5.80;99.90
68051;DHT22;54839;51.364;7.246;2022-12-26T17:05:35;5.80;99.90
68051;DHT22;54839;51.364;7.246;2022-12-26T17:08:02;5.80;99.90
68051;DHT22;54839;51.364;7.246;2022-12-26T17:10:34;5.60;99.90
68051;DHT22;54839;51.364;7.246;2022-12-26T17:13:03;5.50;99.90
68051;DHT22;54839;51.364;7.246;2022-12-26T17:15:33;5.60;99.90
68051;DHT22;54839;51.364;7.246;2022-12-26T17:18:43;5.40;99.90
68051;DHT22;54839;51.364;7.246;2022-12-26T17:21:28;5.30;99.90
68051;DHT22;54839;51.364;7.246;2022-12-26T17:24:20;5.30;99.90
68051;DHT22;54839;51.364;7.246;2022-12-26T17:26:52;5.10;99.90
68051;DHT22;54839;51.364;7.246;2022-12-26T17:29:46;5.10;99.90
68051;DHT22;54839;51.364;7.246;2022-12-26T17:32:23;5.10;99.90
68051;DHT22;54839;51.364;7.246;2022-12-26T17:34:50;5.10;99.90
68051;DHT22;54839;51.364;7.246;2022-12-26T17:37:20;5.20;99.90
68051;DHT22;54839;51.364;7.246;2022-12-26T17:39:56;5.20;99.90
68051;DHT22;54839;51.364;7.246;2022-12-26T17:42:24;5.20;99.90
68051;DHT22;54839;51.364;7.246;2022-12-26T17:44:50;5.20;99.90
68051;DHT22;54839;51.364;7.246;2022-12-26T17:47:22;5.10;99.90
68051;DHT22;54839;51.364;7.246;2022-12-26T17:49:50;4.90;99.90
68051;DHT22;54839;51.364;7.246;2022-12-26T17:52:19;4.90;99.90
68051;DHT22;54839;51.364;7.246;2022-12-26T17:54:46;4.90;99.90
68051;DHT22;54839;51.364;7.246;2022-12-26T17:57:19;4.70;99.90
68051;DHT22;54839;51.364;7.246;2022-12-26T17:59:45;4.70;99.90
68051;DHT22;54839;51.364;7.246;2022-12-26T18:02:11;4.80;99.90
68051;DHT22;54839;51.364;7.246;2022-12-26T18:04:37;4.80;99.90
68051;DHT22;54839;51.364;7.246;2022-12-26T18:07:03;4.70;99.90
68051;DHT22;54839;51.364;7.246;2022-12-26T18:09:29;4.70;99.90
68051;DHT22;54839;51.364;7.246;2022-12-26T18:11:55;4.60;99.90
68051;DHT22;54839;51.364;7.246;2022-12-26T18:14:21;4.60;99.90
68051;DHT22;54839;51.364;7.246;2022-12-26T18:16:48;4.50;99.90
68051;DHT22;54839;51.364;7.246;2022-12-26T18:19:17;4.40;99.90
68051;DHT22;54839;51.364;7.246;2022-12-26T18:21:43;4.50;99.90
68051;DHT22;54839;51.364;7.246;2022-12-26T18:24:09;4.50;99.90
68051;DHT22;54839;51.364;7.246;2022-12-26T18:26:35;4.50;99.90
68051;DHT22;54839;51.364;7.246;2022-12-26T18:29:01;4.40;99.90
68051;DHT22;54839;51.364;7.246;2022-12-26T18:31:27;4.40;99.90
68051;DHT22;54839;51.364;7.246;2022-12-26T18:33:54;4.30;99.90
68051;DHT22;54839;51.364;7.246;2022-12-26T18:36:24;4.40;99.90
68051;DHT22;54839;51.364;7.246;2022-12-26T18:38:52;4.40;99.90
68051;DHT22;54839;51.364;7.246;2022-12-26T18:41:18;4.50;99.90
68051;DHT22;54839;51.364;7.246;2022-12-26T18:43:44;4.40;99.90
68051;DHT22;54839;51.364;7.246;2022-12-26T18:46:18;4.30;99.90
68051;DHT22;54839;51.364;7.246;2022-12-26T18:48:45;4.20;99.90
68051;DHT22;54839;51.364;7.246;2022-12-26T18:51:11;4.00;99.90
68051;DHT22;54839;51.364;7.246;2022-12-26T18:53:36;4.00;99.90
68051;DHT22;54839;51.364;7.246;2022-12-26T18:56:02;4.00;99.90
68051;DHT22;54839;51.364;7.246;2022-12-26T18:58:30;4.00;99.90
68051;DHT22;54839;51.364;7.246;2022-12-26T19:00:55;4.00;99.90
68051;DHT22;54839;51.364;7.246;2022-12-26T19:03:21;3.90;99.90
68051;DHT22;54839;51.364;7.246;2022-12-26T19:05:47;3.90;99.90
68051;DHT22;54839;51.364;7.246;2022-12-26T19:08:13;3.80;99.90
68051;DHT22;54839;51.364;7.246;2022-12-26T19:10:41;3.80;99.90
68051;DHT22;54839;51.364;7.246;2022-12-26T19:13:09;3.80;99.90
68051;DHT22;54839;51.364;7.246;2022-12-26T19:15:35;3.80;99.90
68051;DHT22;54839;51.364;7.246;2022-12-26T19:18:02;3.70;99.90
68051;DHT22;54839;51.364;7.246;2022-12-26T19:20:28;3.80;99.90
68051;DHT22;54839;51.364;7.246;2022-12-26T19:22:54;3.80;99.90
68051;DHT22;54839;51.364;7.246;2022-12-26T19:25:22;3.80;99.90
68051;DHT22;54839;51.364;7.246;2022-12-26T19:27:49;3.80;99.90
68051;DHT22;54839;51.364;7.246;2022-12-26T19:30:16;3.70;99.90
68051;DHT22;54839;51.364;7.246;2022-12-26T19:32:43;3.60;99.90
68051;DHT22;54839;51.364;7.246;2022-12-26T19:35:10;3.60;99.90
68051;DHT22;54839;51.364;7.246;2022-12-26T19:37:36;3.60;99.90
68051;DHT22;54839;51.364;7.246;2022-12-26T19:40:02;3.60;99.90
68051;DHT22;54839;51.364;7.246;2022-12-26T19:42:28;3.60;99.90
68051;DHT22;54839;51.364;7.246;2022-12-26T19:44:54;3.50;99.90
68051;DHT22;54839;51.364;7.246;2022-12-26T19:47:20;3.50;99.90
68051;DHT22;54839;51.364;7.246;2022-12-26T19:49:45;3.50;99.90
68051;DHT22;54839;51.364;7.246;2022-12-26T19:52:11;3.50;99.90
68051;DHT22;54839;51.364;7.246;2022-12-26T19:54:38;3.40;99.90
68051;DHT22;54839;51.364;7.246;2022-12-26T19:57:03;3.50;99.90